Briefing drone pour Gevrey-chambertin

Rechercher une autre localisation

Conditions de vol :


Nous sommes le : Jeudi 11 août 2022
Il est 20:06 UTC (22:06 LT)

Lever de soleil : 04:05 UTC (06:05 LT)
Coucher de soleil : 19:25 UTC (21:25 LT)

Météo

L'essentiel des conditions de vol

VIGILANCE MÉTÉO FRANCE - Côte-dOr (21)
Pas de vigilances particulieres
METAR de LFSD
LFSD 112000Z AUTO 01005KT 340V040 CAVOK 27/07 Q1015

Date d'émission: 11/08/2022
Heure d'émission: 20:00 UTC
Vent: 010° (variable du 340° au 040°) pour 5 KT (9 km/h)
Visibilité horizontale: > 10 km
Plafond : Plafond et visibilité OK (CAVOK)
Température: 27 °C
Point de rosée: 7 °C
Humidité: 28%
Pression (QNH): 1015 hPa
TAF de LFSD
LFSD 010600Z 0100/0124 CNL

Conditions prévues :

Heure d'émission : Bulletin éffectué le 01 à 00:00 UTC
Prévision : Valide du 01 a 00:00 UTC au 01 a 23:59 UTC
Nuages : à 0ft (0 m)
WEBCAM POUR GEVREY-CHAMBERTIN

Réglementation

Voler en sécurité

CARTES AERONAUTIQUE 1/500.000
CARTE AZBA (Reseau basse altitude)
CARTES VAC (LFSD)
SUP AIP




Chargement des AIP...
NOTAM (GEVREY-CHAMBERTIN + Terrain à proximité / FIR )




Chargement des NOTAMS...
CONTACT PREFECTURE 21
Côte-dOr (21) : pref-drone@cote-dor.gouv.fr


Avertissement : Les données mises à disposition sont indicatives. Oxygène Drone ne pourra être tenu responsable de dégâts causés aux biens et aux personnes.